createdAt,value
2024-01-20T00:00:18.622Z,21.20
2024-01-20T00:02:46.636Z,27.03
2024-01-20T00:05:14.753Z,23.97
2024-01-20T00:07:45.641Z,24.27
2024-01-20T00:10:14.572Z,23.77
2024-01-20T00:12:44.796Z,24.27
2024-01-20T00:15:15.454Z,24.23
2024-01-20T00:17:44.221Z,23.67
2024-01-20T00:20:13.443Z,23.17
2024-01-20T00:22:42.312Z,21.13
2024-01-20T00:25:11.455Z,24.20
2024-01-20T00:27:39.727Z,21.47
2024-01-20T00:30:09.010Z,24.93
2024-01-20T00:32:38.678Z,22.33
2024-01-20T00:35:08.589Z,22.47
2024-01-20T00:37:38.853Z,26.83
2024-01-20T00:40:08.349Z,19.43
2024-01-20T00:42:37.219Z,24.53
2024-01-20T00:45:05.784Z,21.23
2024-01-20T00:47:35.985Z,23.57
2024-01-20T00:50:08.745Z,23.27
2024-01-20T00:52:36.880Z,23.20
2024-01-20T00:55:05.821Z,24.57
2024-01-20T00:57:33.810Z,25.73
2024-01-20T01:00:02.370Z,23.30
2024-01-20T01:02:31.211Z,20.87
2024-01-20T01:04:59.330Z,25.53
2024-01-20T01:07:28.818Z,25.07
2024-01-20T01:09:56.803Z,22.80
2024-01-20T01:12:28.158Z,23.47
2024-01-20T01:14:56.941Z,22.50
2024-01-20T01:17:24.991Z,24.00
2024-01-20T01:19:53.116Z,19.73
2024-01-20T01:22:21.608Z,21.67
2024-01-20T01:24:51.122Z,21.40
2024-01-20T01:27:19.726Z,22.83
2024-01-20T01:29:47.832Z,26.83
2024-01-20T01:32:16.060Z,22.23
2024-01-20T01:34:44.163Z,20.20
2024-01-20T01:37:12.297Z,21.67
2024-01-20T01:39:40.618Z,18.83
2024-01-20T01:42:09.968Z,21.53
2024-01-20T01:44:38.318Z,22.33
2024-01-20T01:47:06.600Z,23.23
2024-01-20T01:49:35.129Z,25.93
2024-01-20T01:52:03.860Z,26.27
2024-01-20T01:54:34.371Z,24.77
2024-01-20T01:57:11.600Z,24.80
2024-01-20T01:59:40.951Z,25.40
2024-01-20T02:02:09.191Z,25.37
2024-01-20T02:04:37.388Z,28.20
2024-01-20T02:07:08.814Z,23.57
2024-01-20T02:09:37.436Z,26.23
2024-01-20T02:12:06.603Z,23.93
2024-01-20T02:14:37.583Z,22.43
2024-01-20T02:17:07.316Z,28.33
2024-01-20T02:19:39.983Z,30.13
2024-01-20T02:22:13.430Z,23.50
2024-01-20T02:24:42.547Z,28.30
2024-01-20T02:27:11.005Z,28.30
2024-01-20T02:29:40.504Z,26.17
2024-01-20T02:32:09.038Z,29.47
2024-01-20T02:34:38.163Z,27.90
2024-01-20T02:37:08.290Z,27.90
2024-01-20T02:39:38.511Z,29.23
2024-01-20T02:42:09.683Z,30.43
2024-01-20T02:44:39.833Z,26.33
2024-01-20T02:47:08.145Z,28.67
2024-01-20T02:49:37.140Z,30.87
2024-01-20T02:52:06.331Z,29.03
2024-01-20T02:54:34.720Z,27.03
2024-01-20T02:57:04.341Z,30.03
2024-01-20T02:59:32.797Z,27.03
2024-01-20T03:02:03.099Z,27.60
2024-01-20T03:04:32.067Z,24.33
2024-01-20T03:07:00.182Z,25.57
2024-01-20T03:09:29.639Z,23.30
2024-01-20T03:11:57.799Z,26.60
2024-01-20T03:14:27.459Z,32.93
2024-01-20T03:16:55.565Z,24.83
2024-01-20T03:19:23.708Z,24.43
2024-01-20T03:21:51.702Z,23.23
2024-01-20T03:24:21.448Z,27.30
2024-01-20T03:26:50.330Z,25.93
2024-01-20T03:29:18.794Z,26.13
2024-01-20T03:31:48.273Z,30.93
2024-01-20T03:34:16.877Z,26.77
2024-01-20T03:36:47.198Z,25.97
2024-01-20T03:39:15.285Z,26.77
2024-01-20T03:41:43.381Z,25.80
2024-01-20T03:44:11.446Z,25.93
2024-01-20T03:46:39.478Z,24.30
2024-01-20T03:49:09.044Z,22.83
2024-01-20T03:51:37.219Z,26.53
2024-01-20T03:54:05.553Z,23.83
2024-01-20T03:56:34.813Z,29.10
2024-01-20T03:59:02.829Z,24.33
2024-01-20T04:01:33.268Z,25.30
2024-01-20T04:04:02.764Z,23.50
2024-01-20T04:06:32.686Z,24.63
2024-01-20T04:09:01.961Z,24.40
2024-01-20T04:11:32.150Z,25.40
2024-01-20T04:14:00.511Z,24.77
2024-01-20T04:16:28.516Z,25.53
2024-01-20T04:18:56.690Z,25.80
2024-01-20T04:21:25.064Z,25.23
2024-01-20T04:23:54.834Z,26.53
2024-01-20T04:26:23.732Z,30.10
2024-01-20T04:28:53.817Z,23.57
2024-01-20T04:31:21.834Z,24.50
2024-01-20T04:33:50.273Z,25.07
2024-01-20T04:36:19.413Z,24.40
2024-01-20T04:38:47.652Z,24.63
2024-01-20T04:41:17.122Z,27.83
2024-01-20T04:43:45.204Z,27.07
2024-01-20T04:46:13.522Z,26.73
2024-01-20T04:48:41.979Z,24.90
2024-01-20T04:51:10.650Z,26.33
2024-01-20T04:53:38.673Z,22.47
2024-01-20T04:56:07.293Z,24.70
2024-01-20T04:58:39.772Z,23.70
2024-01-20T05:01:07.779Z,25.57
2024-01-20T05:03:35.943Z,25.90
2024-01-20T05:06:04.145Z,22.97
2024-01-20T05:08:32.234Z,24.17
2024-01-20T05:11:01.650Z,27.30
2024-01-20T05:13:30.082Z,29.27
2024-01-20T05:15:59.442Z,25.70
2024-01-20T05:18:28.341Z,21.77
2024-01-20T05:20:56.480Z,24.27
2024-01-20T05:23:25.123Z,23.13
2024-01-20T05:25:53.244Z,22.67
2024-01-20T05:28:21.253Z,26.23
2024-01-20T05:30:49.664Z,29.40
2024-01-20T05:33:19.119Z,26.07
2024-01-20T05:35:47.525Z,23.50
2024-01-20T05:38:15.541Z,21.97
2024-01-20T05:40:43.659Z,24.37
2024-01-20T05:43:12.602Z,26.47
2024-01-20T05:45:40.671Z,25.57
2024-01-20T05:48:08.859Z,24.47
2024-01-20T05:50:38.426Z,23.73
2024-01-20T05:53:06.514Z,27.90
2024-01-20T05:55:35.323Z,21.70
2024-01-20T05:58:03.637Z,24.33
2024-01-20T06:00:32.777Z,22.83
2024-01-20T06:03:00.101Z,22.10
2024-01-20T06:05:29.755Z,27.60
2024-01-20T06:07:59.191Z,22.10
2024-01-20T06:10:28.186Z,22.40
2024-01-20T06:12:56.232Z,20.17
2024-01-20T06:15:27.019Z,21.67
2024-01-20T06:17:55.509Z,25.87
2024-01-20T06:20:23.840Z,23.13
2024-01-20T06:22:51.834Z,23.20
2024-01-20T06:25:21.185Z,25.50
2024-01-20T06:27:51.347Z,26.03
2024-01-20T06:30:20.247Z,24.10
2024-01-20T06:32:48.393Z,22.50
2024-01-20T06:35:16.909Z,27.20
2024-01-20T06:37:44.950Z,22.00
2024-01-20T06:40:16.232Z,25.03
2024-01-20T06:42:45.662Z,21.37
2024-01-20T06:45:14.954Z,22.73
2024-01-20T06:47:45.025Z,26.40
2024-01-20T06:50:16.270Z,25.53
2024-01-20T06:52:44.297Z,23.90
2024-01-20T06:55:13.629Z,24.13
2024-01-20T06:57:41.715Z,22.50
2024-01-20T07:00:12.973Z,23.23
2024-01-20T07:02:41.034Z,21.47
2024-01-20T07:05:10.751Z,20.67
2024-01-20T07:07:40.944Z,25.37
2024-01-20T07:10:10.116Z,21.17
2024-01-20T07:12:38.697Z,23.13
2024-01-20T07:15:07.906Z,30.07
2024-01-20T07:17:38.886Z,26.30
2024-01-20T07:20:08.971Z,21.53
2024-01-20T07:22:37.066Z,29.40
2024-01-20T07:25:06.836Z,35.77
2024-01-20T07:27:37.120Z,26.83
2024-01-20T07:30:06.487Z,25.13
2024-01-20T07:32:34.558Z,26.97
2024-01-20T07:35:05.962Z,26.30
2024-01-20T07:37:37.213Z,24.77
2024-01-20T07:40:06.736Z,24.37
2024-01-20T07:42:36.393Z,29.37
2024-01-20T07:45:05.745Z,25.47
2024-01-20T07:47:34.457Z,25.07
2024-01-20T07:50:03.007Z,27.13
2024-01-20T07:52:32.978Z,28.13
2024-01-20T07:55:01.953Z,28.60
2024-01-20T07:57:31.813Z,28.77
2024-01-20T08:00:00.301Z,30.63
2024-01-20T08:02:28.505Z,28.80
2024-01-20T08:04:57.077Z,31.10
2024-01-20T08:07:25.228Z,31.07
2024-01-20T08:09:55.094Z,32.87
2024-01-20T08:12:24.479Z,26.57
2024-01-20T08:14:53.250Z,27.33
2024-01-20T08:17:21.878Z,30.73
2024-01-20T08:19:52.258Z,25.80
2024-01-20T08:22:21.659Z,32.70
2024-01-20T08:24:51.293Z,32.83
2024-01-20T08:27:20.889Z,31.63
2024-01-20T08:29:48.905Z,32.07
2024-01-20T08:32:17.425Z,35.83
2024-01-20T08:34:46.827Z,38.67
2024-01-20T08:37:16.167Z,41.07
2024-01-20T08:39:44.383Z,36.53
2024-01-20T08:42:12.636Z,36.27
2024-01-20T08:44:42.344Z,35.73
2024-01-20T08:47:11.620Z,36.23
2024-01-20T08:49:41.054Z,33.67
2024-01-20T08:52:12.610Z,42.30
2024-01-20T08:54:41.675Z,33.77
2024-01-20T08:57:09.845Z,31.80
2024-01-20T08:59:44.356Z,31.77
2024-01-20T09:02:12.979Z,32.00
2024-01-20T09:04:41.511Z,33.07
2024-01-20T09:07:09.571Z,35.97
2024-01-20T09:09:37.737Z,36.10
2024-01-20T09:12:06.467Z,37.47
2024-01-20T09:14:35.847Z,35.60
2024-01-20T09:17:06.263Z,51.80
2024-01-20T09:19:34.534Z,59.23
2024-01-20T09:22:02.872Z,42.20
2024-01-20T09:24:31.795Z,40.80
2024-01-20T09:27:01.510Z,49.23
2024-01-20T09:29:30.027Z,45.93
2024-01-20T09:31:59.112Z,47.83
2024-01-20T09:34:30.206Z,41.80
2024-01-20T09:36:58.402Z,33.33
2024-01-20T09:39:27.169Z,39.07
2024-01-20T09:41:55.764Z,38.83
2024-01-20T09:44:24.422Z,34.40
2024-01-20T09:46:53.123Z,35.17
2024-01-20T09:49:21.526Z,32.90
2024-01-20T09:51:53.149Z,32.00
2024-01-20T09:54:23.003Z,36.10
2024-01-20T09:56:53.120Z,34.00
2024-01-20T09:59:23.161Z,35.73
2024-01-20T10:01:53.286Z,35.53
2024-01-20T10:04:23.713Z,40.23
2024-01-20T10:06:55.255Z,43.03
2024-01-20T10:09:24.040Z,41.20
2024-01-20T10:11:52.191Z,39.33
2024-01-20T10:14:20.482Z,41.30
2024-01-20T10:16:48.475Z,40.97
2024-01-20T10:19:17.053Z,39.53
2024-01-20T10:21:45.166Z,40.43
2024-01-20T10:24:21.074Z,38.20
2024-01-20T10:26:50.116Z,39.17
2024-01-20T10:29:18.918Z,37.67
2024-01-20T10:31:47.394Z,37.77
2024-01-20T10:34:16.162Z,36.47
2024-01-20T10:36:47.090Z,38.27
2024-01-20T10:39:21.165Z,41.73
2024-01-20T10:41:50.156Z,42.37
2024-01-20T10:44:23.083Z,34.87
2024-01-20T10:46:55.622Z,34.27
2024-01-20T10:49:24.849Z,30.80
2024-01-20T10:51:54.878Z,33.07
2024-01-20T10:54:25.027Z,34.10
2024-01-20T10:56:53.344Z,33.37
2024-01-20T10:59:26.266Z,35.00
2024-01-20T11:01:55.454Z,32.80
2024-01-20T11:04:23.814Z,32.67
2024-01-20T11:06:52.642Z,33.43
2024-01-20T11:09:22.857Z,32.83
2024-01-20T11:12:02.397Z,31.93
2024-01-20T11:14:33.212Z,32.57
2024-01-20T11:17:11.339Z,29.77
2024-01-20T11:19:40.433Z,27.57
2024-01-20T11:22:30.986Z,27.90
2024-01-20T11:24:59.021Z,27.10
2024-01-20T11:27:28.723Z,28.63
2024-01-20T11:30:06.228Z,26.30
2024-01-20T11:32:35.725Z,27.17
2024-01-20T11:35:07.963Z,25.97
2024-01-20T11:37:37.336Z,27.47
2024-01-20T11:40:09.485Z,25.13
2024-01-20T11:42:39.579Z,27.17
2024-01-20T11:45:08.771Z,25.33
2024-01-20T11:47:37.206Z,25.17
2024-01-20T11:50:06.482Z,27.17
2024-01-20T11:52:37.037Z,25.73
2024-01-20T11:55:05.774Z,24.67
2024-01-20T11:57:33.823Z,24.83
2024-01-20T12:00:04.682Z,23.83
2024-01-20T12:02:33.571Z,24.30
2024-01-20T12:05:07.894Z,23.00
2024-01-20T12:07:38.729Z,23.67
2024-01-20T12:10:07.162Z,23.60
2024-01-20T12:12:35.496Z,21.73
2024-01-20T12:15:08.230Z,24.07
2024-01-20T12:17:37.330Z,21.60
2024-01-20T12:20:06.896Z,23.00
2024-01-20T12:22:38.384Z,23.57
2024-01-20T12:25:08.170Z,22.60
2024-01-20T12:27:36.477Z,21.53
2024-01-20T12:30:06.735Z,22.73
2024-01-20T12:32:36.108Z,21.33
2024-01-20T12:35:05.885Z,23.33
2024-01-20T12:37:34.584Z,22.37
2024-01-20T12:40:06.830Z,23.60
2024-01-20T12:42:38.563Z,23.87
2024-01-20T12:45:10.107Z,22.83
2024-01-20T12:47:38.492Z,22.77
2024-01-20T12:50:08.195Z,22.90
2024-01-20T12:52:36.895Z,23.50
2024-01-20T12:55:06.684Z,22.47
2024-01-20T12:57:35.129Z,22.93
2024-01-20T13:00:04.060Z,22.80
2024-01-20T13:02:33.700Z,22.67
2024-01-20T13:05:03.082Z,21.80
2024-01-20T13:07:32.146Z,22.20
2024-01-20T13:10:00.189Z,23.63
2024-01-20T13:12:29.718Z,22.57
2024-01-20T13:14:57.893Z,22.03
2024-01-20T13:17:26.691Z,22.23
2024-01-20T13:19:57.321Z,22.97
2024-01-20T13:22:25.731Z,22.93
2024-01-20T13:24:58.052Z,22.70
2024-01-20T13:27:26.641Z,22.53
2024-01-20T13:29:54.747Z,21.83
2024-01-20T13:32:22.880Z,22.23
2024-01-20T13:34:51.277Z,22.10
2024-01-20T13:37:23.001Z,22.77
2024-01-20T13:39:53.811Z,21.83
2024-01-20T13:42:22.253Z,22.00
2024-01-20T13:44:50.312Z,23.87
2024-01-20T13:47:19.587Z,23.37
2024-01-20T13:49:47.774Z,22.80
2024-01-20T13:52:16.011Z,24.87
2024-01-20T13:54:45.489Z,24.03
2024-01-20T13:57:15.186Z,22.63
2024-01-20T13:59:43.247Z,23.33
2024-01-20T14:02:17.363Z,23.33
2024-01-20T14:04:46.832Z,23.03
2024-01-20T14:07:16.392Z,22.97
2024-01-20T14:09:45.985Z,23.20
2024-01-20T14:12:14.378Z,23.70
2024-01-20T14:14:42.531Z,22.90
2024-01-20T14:17:11.237Z,21.70
2024-01-20T14:19:40.744Z,24.10
2024-01-20T14:22:09.106Z,22.53
2024-01-20T14:24:37.703Z,22.93
2024-01-20T14:27:07.692Z,22.37
2024-01-20T14:29:36.475Z,21.37
2024-01-20T14:32:04.964Z,20.77
2024-01-20T14:34:34.426Z,21.87
2024-01-20T14:37:05.188Z,21.80
2024-01-20T14:39:34.067Z,21.90
2024-01-20T14:42:02.700Z,16.73
2024-01-20T14:44:32.188Z,21.90
2024-01-20T14:47:00.320Z,24.30
2024-01-20T14:49:28.877Z,24.60
2024-01-20T14:51:57.375Z,24.63
2024-01-20T14:54:26.641Z,25.63
2024-01-20T14:56:54.843Z,24.60
2024-01-20T14:59:25.439Z,24.70
2024-01-20T15:01:55.157Z,24.13
2024-01-20T15:04:23.916Z,25.87
2024-01-20T15:06:52.452Z,25.90
2024-01-20T15:09:20.977Z,25.70
2024-01-20T15:11:49.167Z,26.60
2024-01-20T15:14:17.458Z,24.97
2024-01-20T15:16:45.520Z,26.00
2024-01-20T15:19:15.304Z,26.07
2024-01-20T15:21:43.487Z,30.53
2024-01-20T15:24:11.984Z,26.77
2024-01-20T15:26:41.140Z,28.63
2024-01-20T15:29:11.473Z,27.07
2024-01-20T15:31:39.614Z,29.60
2024-01-20T15:34:07.897Z,27.90
2024-01-20T15:36:37.428Z,29.30
2024-01-20T15:39:06.156Z,31.20
2024-01-20T15:41:34.336Z,31.17
2024-01-20T15:44:02.454Z,31.50
2024-01-20T15:46:31.123Z,31.00
2024-01-20T15:48:59.375Z,34.97
2024-01-20T15:51:27.521Z,30.20
2024-01-20T15:53:57.242Z,37.90
2024-01-20T15:56:26.532Z,42.87
2024-01-20T15:58:54.871Z,34.67
2024-01-20T16:01:24.172Z,36.30
2024-01-20T16:03:53.354Z,33.33
2024-01-20T16:06:21.516Z,35.00
2024-01-20T16:08:50.162Z,34.87
2024-01-20T16:11:19.573Z,34.17
2024-01-20T16:13:48.801Z,34.60
2024-01-20T16:16:16.933Z,34.17
2024-01-20T16:18:45.935Z,33.10
2024-01-20T16:21:21.756Z,36.93
2024-01-20T16:23:50.132Z,37.10
2024-01-20T16:26:21.414Z,36.10
2024-01-20T16:28:50.103Z,33.83
2024-01-20T16:31:18.611Z,32.80
2024-01-20T16:33:47.891Z,37.30
2024-01-20T16:36:19.592Z,35.23
2024-01-20T16:38:47.741Z,34.53
2024-01-20T16:41:16.319Z,33.40
2024-01-20T16:43:45.983Z,36.77
2024-01-20T16:46:14.350Z,38.10
2024-01-20T16:48:42.575Z,35.77
2024-01-20T16:51:15.448Z,33.50
2024-01-20T16:53:51.737Z,33.40
2024-01-20T16:56:22.051Z,34.33
2024-01-20T16:58:51.540Z,33.70
2024-01-20T17:01:19.828Z,32.63
2024-01-20T17:03:47.981Z,33.97
2024-01-20T17:06:19.504Z,34.20
2024-01-20T17:08:47.962Z,33.37
2024-01-20T17:11:16.263Z,30.47
2024-01-20T17:13:44.966Z,30.53
2024-01-20T17:16:14.973Z,33.90
2024-01-20T17:18:43.592Z,34.30
2024-01-20T17:21:16.503Z,37.93
2024-01-20T17:23:46.232Z,33.43
2024-01-20T17:26:14.612Z,38.00
2024-01-20T17:28:44.011Z,36.20
2024-01-20T17:31:13.172Z,34.60
2024-01-20T17:33:43.103Z,30.47
2024-01-20T17:36:12.428Z,33.20
2024-01-20T17:38:41.619Z,34.00
2024-01-20T17:41:09.652Z,34.33
2024-01-20T17:43:38.285Z,31.07
2024-01-20T17:46:07.855Z,30.83
2024-01-20T17:48:36.992Z,31.23
2024-01-20T17:51:09.206Z,32.47
2024-01-20T17:53:37.309Z,32.30
2024-01-20T17:56:06.484Z,31.77
2024-01-20T17:58:36.786Z,33.10
2024-01-20T18:01:06.170Z,34.03
2024-01-20T18:03:37.779Z,32.47
2024-01-20T18:06:06.552Z,33.10
2024-01-20T18:08:37.796Z,31.77
2024-01-20T18:11:06.920Z,34.87
2024-01-20T18:13:35.004Z,31.43
2024-01-20T18:16:03.145Z,34.90
2024-01-20T18:18:31.314Z,32.60
2024-01-20T18:20:59.705Z,31.73
2024-01-20T18:23:28.770Z,32.83
2024-01-20T18:25:58.288Z,33.27
2024-01-20T18:28:27.767Z,33.57
2024-01-20T18:30:56.514Z,33.67
2024-01-20T18:33:25.920Z,33.73
2024-01-20T18:35:55.464Z,35.70
2024-01-20T18:38:23.851Z,31.47
2024-01-20T18:40:51.912Z,32.13
2024-01-20T18:43:21.821Z,33.60
2024-01-20T18:45:51.092Z,35.30
2024-01-20T18:48:19.438Z,35.40
2024-01-20T18:50:47.989Z,34.50
2024-01-20T18:53:16.668Z,36.47
2024-01-20T18:55:45.441Z,35.60
2024-01-20T18:58:13.998Z,34.43
2024-01-20T19:00:43.782Z,42.73
2024-01-20T19:03:13.019Z,42.50
2024-01-20T19:05:43.224Z,42.30
2024-01-20T19:08:11.639Z,39.10
2024-01-20T19:10:44.180Z,41.73
2024-01-20T19:13:12.233Z,42.03
2024-01-20T19:15:43.066Z,42.23
2024-01-20T19:18:13.087Z,43.93
2024-01-20T19:20:42.293Z,43.27
2024-01-20T19:23:11.647Z,43.57
2024-01-20T19:25:39.726Z,42.90
2024-01-20T19:28:07.753Z,45.87
2024-01-20T19:30:37.533Z,48.23
2024-01-20T19:33:08.798Z,68.90
2024-01-20T19:35:37.112Z,61.87
2024-01-20T19:38:05.833Z,50.77
2024-01-20T19:40:36.830Z,42.60
2024-01-20T19:43:05.301Z,41.17
2024-01-20T19:45:35.061Z,47.20
2024-01-20T19:48:05.050Z,51.37
2024-01-20T19:50:35.222Z,48.07
2024-01-20T19:53:03.312Z,42.17
2024-01-20T19:55:32.316Z,45.63
2024-01-20T19:58:00.863Z,40.67
2024-01-20T20:00:29.623Z,43.37
2024-01-20T20:03:00.649Z,41.77
2024-01-20T20:05:32.411Z,45.13
2024-01-20T20:08:02.911Z,44.80
2024-01-20T20:10:32.179Z,43.87
2024-01-20T20:13:00.500Z,43.87
2024-01-20T20:15:28.559Z,45.60
2024-01-20T20:17:57.111Z,43.53
2024-01-20T20:20:27.150Z,48.07
2024-01-20T20:22:55.245Z,53.30
2024-01-20T20:25:24.912Z,44.27
2024-01-20T20:27:54.751Z,44.57
2024-01-20T20:30:24.934Z,46.53
2024-01-20T20:32:54.713Z,44.93
2024-01-20T20:35:22.759Z,43.90
2024-01-20T20:37:52.569Z,48.83
2024-01-20T20:40:20.612Z,43.03
2024-01-20T20:42:50.010Z,47.83
2024-01-20T20:45:18.050Z,53.67
2024-01-20T20:47:47.573Z,44.70
2024-01-20T20:50:18.004Z,43.77
2024-01-20T20:52:46.804Z,46.13
2024-01-20T20:55:15.198Z,45.63
2024-01-20T20:57:44.118Z,43.63
2024-01-20T21:00:16.682Z,42.13
2024-01-20T21:02:46.264Z,47.27
2024-01-20T21:05:17.179Z,43.03
2024-01-20T21:07:45.582Z,49.97
2024-01-20T21:10:15.576Z,65.73
2024-01-20T21:12:44.408Z,52.67
2024-01-20T21:15:14.796Z,60.90
2024-01-20T21:17:43.464Z,56.70
2024-01-20T21:20:13.754Z,49.37
2024-01-20T21:22:42.992Z,48.57
2024-01-20T21:25:11.539Z,44.10
2024-01-20T21:27:41.740Z,47.40
2024-01-20T21:30:10.789Z,42.83
2024-01-20T21:32:40.568Z,43.80
2024-01-20T21:35:09.082Z,46.63
2024-01-20T21:37:39.600Z,45.30
2024-01-20T21:40:09.177Z,40.60
2024-01-20T21:42:37.250Z,41.17
2024-01-20T21:45:07.397Z,38.63
2024-01-20T21:47:36.872Z,44.63
2024-01-20T21:50:09.070Z,41.90
2024-01-20T21:52:39.606Z,39.40
2024-01-20T21:55:09.809Z,37.77
2024-01-20T21:57:37.900Z,41.83
2024-01-20T22:00:09.213Z,39.23
2024-01-20T22:02:43.904Z,35.80
2024-01-20T22:05:14.029Z,35.73
2024-01-20T22:07:43.076Z,37.07
2024-01-20T22:10:12.222Z,40.13
2024-01-20T22:12:40.934Z,40.27
2024-01-20T22:15:10.152Z,38.90
2024-01-20T22:17:39.024Z,41.10
2024-01-20T22:20:09.464Z,41.00
2024-01-20T22:22:39.399Z,40.17
2024-01-20T22:25:07.518Z,39.30
2024-01-20T22:27:38.707Z,37.53
2024-01-20T22:30:10.144Z,35.80
2024-01-20T22:32:40.325Z,35.83
2024-01-20T22:35:09.967Z,37.93
2024-01-20T22:37:41.566Z,42.20
2024-01-20T22:40:11.395Z,36.73
2024-01-20T22:42:40.695Z,40.17
2024-01-20T22:45:11.089Z,46.37
2024-01-20T22:47:40.397Z,42.17
2024-01-20T22:50:09.210Z,44.73
2024-01-20T22:52:37.551Z,55.37
2024-01-20T22:55:07.741Z,62.43
2024-01-20T22:57:39.812Z,38.63
2024-01-20T23:00:13.905Z,38.57
2024-01-20T23:02:42.293Z,40.77
2024-01-20T23:05:11.252Z,36.80
2024-01-20T23:07:39.645Z,36.23
2024-01-20T23:10:10.175Z,35.73
2024-01-20T23:12:39.918Z,35.47
2024-01-20T23:15:10.376Z,34.80
2024-01-20T23:17:39.825Z,36.83
2024-01-20T23:20:11.308Z,35.00
2024-01-20T23:22:39.679Z,34.90
2024-01-20T23:25:11.253Z,34.20
2024-01-20T23:27:39.688Z,35.23
2024-01-20T23:30:08.921Z,37.93
2024-01-20T23:32:37.177Z,37.97
2024-01-20T23:35:06.291Z,38.00
2024-01-20T23:37:36.566Z,39.53
2024-01-20T23:40:06.076Z,43.40
2024-01-20T23:42:38.352Z,42.27
2024-01-20T23:45:07.423Z,39.97
2024-01-20T23:47:38.543Z,53.83
2024-01-20T23:50:07.698Z,53.90
2024-01-20T23:52:36.468Z,52.97
2024-01-20T23:55:04.940Z,57.07
2024-01-20T23:57:33.745Z,53.50
